UKLL/LWO METAR and TAF weather

Enter ICAO airport designator
Station Type Date Time Source
UKLL METAR 2020/10/22 03:30 UTC NOAA

UKLL 220330Z 23001MPS CAVOK 03/03 Q1018 R31/CLRD// NOSIG


Station Type Date Time Source
UKLL Decoded METAR 2020/10/22 03:30 UTC NOAA

L'Viv, Ukraine (UKLL) 49-49N 023-57E 323M
Oct 21, 2020 - 11:30 PM EDT / 2020.10.22 0330 UTC
Wind: from the SW (230 degrees) at 2 MPH (2 KT):0
Visibility: greater than 7 mile(s):0
Temperature: 37 F (3 C)
Dew Point: 37 F (3 C)
Relative Humidity: 100%
Pressure (altimeter): 30.06 in. Hg (1018 hPa)
ob: UKLL 220330Z 23001MPS CAVOK 03/03 Q1018 R31/CLRD// NOSIG
cycle: 3

Station Type Date Time Source
UKLL TAF 2020/10/21 18:09 UTC NOAA

TAF UKLL 211704Z 2118/2218 18003MPS 9999 BKN020
TEMPO 2120/2206 VRB01MPS 2100 BR SCT010
BECMG 2206/2207 24005G11MPS

Example: see airport list